Time;durP1;ratioP1;P1;durP2;ratioP2;P2;SDS_P1;SDS_P2;PMS_P1;PMS_P2;Temp;Humidity;BMP_temperature;BMP_pressure;BME280_temperature;BME280_humidity;BME280_pressure;Samples;Min_cycle;Max_cycle;Signal;HPM_P1;HPM_P2
2023/08/26 00:00:07;;;;;;;0.00;0.00;;;;;;;;;;5072045;28;20047;-77
2023/08/26 00:02:34;;;;;;;0.00;0.00;;;;;;;;;;5072214;28;20041;-76
2023/08/26 00:05:00;;;;;;;0.00;0.00;;;;;;;;;;5072099;28;20044;-76
2023/08/26 00:07:27;;;;;;;0.00;0.00;;;;;;;;;;5072298;28;20071;-76
2023/08/26 00:09:53;;;;;;;0.00;0.00;;;;;;;;;;5073011;28;20049;-76
2023/08/26 00:12:19;;;;;;;0.00;0.00;;;;;;;;;;5073391;28;20399;-77
2023/08/26 00:14:46;;;;;;;0.00;0.00;;;;;;;;;;5071889;28;20089;-76
2023/08/26 00:17:12;;;;;;;0.00;0.00;;;;;;;;;;5073215;28;20045;-77
2023/08/26 00:19:38;;;;;;;0.00;0.00;;;;;;;;;;5071641;28;20051;-77
2023/08/26 00:22:05;;;;;;;0.00;0.00;;;;;;;;;;5071920;28;20412;-76
2023/08/26 00:24:31;;;;;;;0.00;0.00;;;;;;;;;;5073323;28;20044;-76
2023/08/26 00:26:58;;;;;;;0.00;0.00;;;;;;;;;;5072228;28;20047;-76
2023/08/26 00:29:24;;;;;;;0.00;0.00;;;;;;;;;;5073476;28;20430;-77
2023/08/26 00:31:50;;;;;;;0.20;0.15;;;;;;;;;;5072959;28;20438;-77
2023/08/26 00:34:16;;;;;;;0.00;0.00;;;;;;;;;;5072789;28;20037;-76
2023/08/26 00:36:42;;;;;;;0.00;0.00;;;;;;;;;;5072858;28;20398;-76
2023/08/26 00:39:08;;;;;;;0.00;0.00;;;;;;;;;;5072588;28;20048;-76
2023/08/26 00:41:34;;;;;;;0.00;0.00;;;;;;;;;;5073070;28;20041;-77
2023/08/26 00:44:00;;;;;;;0.00;0.00;;;;;;;;;;5072316;28;20044;-76
2023/08/26 00:46:26;;;;;;;0.00;0.00;;;;;;;;;;5072690;28;20029;-76
2023/08/26 00:48:52;;;;;;;0.00;0.00;;;;;;;;;;5054490;28;20049;-77
2023/08/26 00:51:19;;;;;;;0.00;0.00;;;;;;;;;;5072719;28;20044;-77
2023/08/26 00:53:46;;;;;;;0.00;0.00;;;;;;;;;;5072767;28;20051;-76
2023/08/26 00:56:12;;;;;;;0.00;0.00;;;;;;;;;;5071425;28;20043;-76
2023/08/26 00:58:38;;;;;;;0.00;0.00;;;;;;;;;;5072705;28;20399;-77
2023/08/26 01:01:04;;;;;;;0.00;0.00;;;;;;;;;;5072240;28;20036;-77
2023/08/26 01:03:30;;;;;;;0.00;0.00;;;;;;;;;;5072774;28;20040;-76
2023/08/26 01:05:56;;;;;;;0.00;0.00;;;;;;;;;;5071197;28;20124;-76
2023/08/26 01:08:22;;;;;;;0.00;0.00;;;;;;;;;;5071529;28;20097;-76
2023/08/26 01:11:08;;;;;;;0.00;0.00;;;;;;;;;;5070900;28;20415;-76
2023/08/26 01:13:49;;;;;;;0.10;0.05;;;;;;;;;;5072380;28;20052;-76
2023/08/26 01:16:15;;;;;;;0.00;0.00;;;;;;;;;;5071057;28;20083;-75
2023/08/26 01:18:42;;;;;;;0.00;0.00;;;;;;;;;;5071199;28;20357;-77
2023/08/26 01:21:11;;;;;;;0.00;0.00;;;;;;;;;;5072186;28;20036;-76
2023/08/26 01:23:43;;;;;;;0.00;0.00;;;;;;;;;;5072346;28;20119;-77
2023/08/26 01:26:09;;;;;;;0.00;0.00;;;;;;;;;;5072149;28;20094;-76
2023/08/26 01:28:35;;;;;;;0.00;0.00;;;;;;;;;;5072317;28;20045;-76
2023/08/26 01:31:04;;;;;;;0.00;0.00;;;;;;;;;;5071132;28;20059;-77
2023/08/26 01:33:34;;;;;;;0.00;0.00;;;;;;;;;;5072522;28;20438;-76
2023/08/26 01:36:01;;;;;;;0.00;0.00;;;;;;;;;;5072130;28;20044;-76
2023/08/26 01:38:28;;;;;;;0.00;0.00;;;;;;;;;;5072186;28;20087;-76
2023/08/26 01:40:56;;;;;;;0.00;0.00;;;;;;;;;;5070931;28;20421;-76
2023/08/26 01:43:22;;;;;;;0.00;0.00;;;;;;;;;;5072153;28;20388;-77
2023/08/26 01:45:48;;;;;;;0.00;0.00;;;;;;;;;;5071922;28;20044;-77
2023/08/26 01:48:14;;;;;;;0.00;0.00;;;;;;;;;;5072107;28;20116;-76
2023/08/26 01:50:40;;;;;;;0.00;0.00;;;;;;;;;;5070556;28;20434;-77
2023/08/26 01:53:08;;;;;;;0.00;0.00;;;;;;;;;;5070800;28;20051;-76
2023/08/26 01:55:34;;;;;;;0.00;0.00;;;;;;;;;;5071577;28;20041;-76
2023/08/26 01:58:00;;;;;;;0.00;0.00;;;;;;;;;;5074716;28;20376;-76
2023/08/26 02:00:26;;;;;;;0.00;0.00;;;;;;;;;;5074398;28;20495;-77
2023/08/26 02:02:52;;;;;;;0.00;0.00;;;;;;;;;;5074538;28;20071;-76
2023/08/26 02:05:18;;;;;;;0.00;0.00;;;;;;;;;;5075656;28;20036;-76
2023/08/26 02:07:44;;;;;;;0.00;0.00;;;;;;;;;;5075554;28;20036;-76
2023/08/26 02:10:10;;;;;;;0.00;0.00;;;;;;;;;;5057162;28;20048;-76
2023/08/26 02:12:36;;;;;;;0.00;0.00;;;;;;;;;;5075655;28;20439;-76
2023/08/26 02:15:03;;;;;;;0.00;0.00;;;;;;;;;;5075335;28;20164;-77
2023/08/26 02:17:29;;;;;;;0.00;0.00;;;;;;;;;;5074304;28;20056;-77
2023/08/26 02:19:55;;;;;;;0.00;0.00;;;;;;;;;;5074015;28;20475;-76
2023/08/26 02:22:21;;;;;;;0.00;0.00;;;;;;;;;;5074298;28;20036;-76
2023/08/26 02:24:47;;;;;;;0.00;0.00;;;;;;;;;;5075143;28;20072;-76
2023/08/26 02:27:13;;;;;;;0.00;0.00;;;;;;;;;;5074250;28;20036;-77
2023/08/26 02:29:39;;;;;;;0.00;0.00;;;;;;;;;;5075393;28;20392;-76
2023/08/26 02:32:06;;;;;;;0.10;0.00;;;;;;;;;;5073628;28;20051;-76
2023/08/26 02:34:33;;;;;;;0.00;0.00;;;;;;;;;;5073951;28;20373;-76
2023/08/26 02:36:58;;;;;;;0.00;0.00;;;;;;;;;;5073679;28;20083;-76
2023/08/26 02:39:24;;;;;;;0.00;0.00;;;;;;;;;;5073615;28;20416;-77
2023/08/26 02:41:50;;;;;;;0.00;0.00;;;;;;;;;;5073581;28;20054;-76
2023/08/26 02:44:16;;;;;;;0.00;0.00;;;;;;;;;;5075155;28;20094;-76
2023/08/26 02:46:42;;;;;;;0.00;0.00;;;;;;;;;;5074868;28;20120;-76
2023/08/26 02:49:08;;;;;;;0.00;0.00;;;;;;;;;;5057129;28;20040;-76
2023/08/26 02:51:34;;;;;;;0.00;0.00;;;;;;;;;;5073328;28;20083;-76
2023/08/26 02:54:00;;;;;;;0.00;0.00;;;;;;;;;;5073721;28;20040;-76
2023/08/26 02:56:26;;;;;;;0.00;0.00;;;;;;;;;;5074856;28;20427;-76
2023/08/26 02:58:52;;;;;;;0.00;0.00;;;;;;;;;;5073445;28;20101;-76
2023/08/26 03:01:19;;;;;;;0.00;0.00;;;;;;;;;;5074441;28;20040;-76
2023/08/26 03:03:45;;;;;;;0.00;0.00;;;;;;;;;;5074802;28;20153;-77
2023/08/26 03:06:11;;;;;;;0.00;0.00;;;;;;;;;;5072904;28;20503;-76
2023/08/26 03:08:37;;;;;;;0.00;0.00;;;;;;;;;;5056801;28;20049;-76
2023/08/26 03:11:04;;;;;;;0.00;0.00;;;;;;;;;;5072974;28;20056;-77
2023/08/26 03:13:30;;;;;;;0.00;0.00;;;;;;;;;;5074620;28;20040;-76
2023/08/26 03:15:57;;;;;;;0.00;0.00;;;;;;;;;;5074245;28;20062;-77
2023/08/26 03:18:23;;;;;;;0.00;0.00;;;;;;;;;;5074322;28;20110;-76
2023/08/26 03:20:49;;;;;;;0.00;0.00;;;;;;;;;;5073973;28;20032;-76
2023/08/26 03:23:15;;;;;;;0.00;0.00;;;;;;;;;;5072917;28;20040;-76
2023/08/26 03:25:42;;;;;;;0.00;0.00;;;;;;;;;;5074163;28;20124;-76
2023/08/26 03:28:08;;;;;;;0.17;0.05;;;;;;;;;;5072962;28;20063;-76
2023/08/26 03:30:35;;;;;;;0.00;0.00;;;;;;;;;;5072913;28;20162;-77
2023/08/26 03:33:01;;;;;;;0.00;0.00;;;;;;;;;;5072893;28;20121;-76
2023/08/26 03:35:27;;;;;;;0.00;0.00;;;;;;;;;;5072717;28;20048;-76
2023/08/26 03:37:53;;;;;;;0.00;0.00;;;;;;;;;;5073813;28;20044;-76
2023/08/26 03:40:22;;;;;;;0.00;0.00;;;;;;;;;;5074013;28;20349;-76
2023/08/26 03:42:51;;;;;;;0.00;0.00;;;;;;;;;;5073750;28;20127;-76
2023/08/26 03:45:17;;;;;;;0.00;0.00;;;;;;;;;;5072612;28;20044;-76
2023/08/26 03:47:43;;;;;;;0.00;0.00;;;;;;;;;;5072219;28;20124;-77
2023/08/26 03:50:10;;;;;;;0.00;0.00;;;;;;;;;;5072757;28;20147;-76
2023/08/26 03:52:36;;;;;;;0.00;0.00;;;;;;;;;;5072322;28;20048;-76
2023/08/26 03:55:04;;;;;;;0.00;0.00;;;;;;;;;;5072710;28;20052;-76
2023/08/26 03:57:30;;;;;;;0.00;0.00;;;;;;;;;;5072200;28;20052;-76
2023/08/26 03:59:56;;;;;;;0.00;0.00;;;;;;;;;;5073541;28;20472;-76
2023/08/26 04:02:21;;;;;;;0.00;0.00;;;;;;;;;;5072152;28;20045;-76
2023/08/26 04:04:47;;;;;;;0.00;0.00;;;;;;;;;;5072217;28;20043;-76
2023/08/26 04:07:13;;;;;;;0.00;0.00;;;;;;;;;;5073268;28;20040;-76
2023/08/26 04:09:39;;;;;;;0.00;0.00;;;;;;;;;;5071894;28;20051;-76
2023/08/26 04:12:06;;;;;;;0.00;0.00;;;;;;;;;;5071885;28;20487;-76
2023/08/26 04:14:31;;;;;;;0.00;0.00;;;;;;;;;;5073207;28;20495;-77
2023/08/26 04:16:57;;;;;;;0.00;0.00;;;;;;;;;;5071793;28;20036;-77
2023/08/26 04:19:23;;;;;;;0.00;0.00;;;;;;;;;;5071371;28;20472;-76
2023/08/26 04:21:49;;;;;;;0.00;0.00;;;;;;;;;;5072040;28;20044;-76
2023/08/26 04:24:15;;;;;;;0.00;0.00;;;;;;;;;;5073392;28;20037;-76
2023/08/26 04:26:41;;;;;;;0.00;0.00;;;;;;;;;;5071589;28;20143;-77
2023/08/26 04:29:07;;;;;;;0.00;0.00;;;;;;;;;;5072165;28;20044;-77
2023/08/26 04:31:33;;;;;;;0.00;0.00;;;;;;;;;;5054956;28;20036;-76
2023/08/26 04:33:59;;;;;;;0.00;0.00;;;;;;;;;;5073299;28;20048;-76
2023/08/26 04:36:25;;;;;;;0.00;0.00;;;;;;;;;;5071604;28;20048;-77
2023/08/26 04:38:51;;;;;;;0.00;0.00;;;;;;;;;;5071821;28;20040;-76
2023/08/26 04:41:18;;;;;;;0.00;0.00;;;;;;;;;;5072905;28;20033;-76
2023/08/26 04:43:44;;;;;;;0.00;0.00;;;;;;;;;;5071659;28;20076;-76
2023/08/26 04:46:10;;;;;;;0.00;0.00;;;;;;;;;;5072901;28;20104;-76
2023/08/26 04:48:36;;;;;;;0.00;0.00;;;;;;;;;;5055358;28;20047;-76
2023/08/26 04:51:02;;;;;;;0.00;0.00;;;;;;;;;;5072990;28;20047;-76
2023/08/26 04:53:28;;;;;;;0.00;0.00;;;;;;;;;;5071626;28;20045;-76
2023/08/26 04:55:54;;;;;;;0.00;0.00;;;;;;;;;;5073214;28;20103;-76
2023/08/26 04:58:21;;;;;;;0.00;0.00;;;;;;;;;;5072937;28;20048;-77
2023/08/26 05:00:47;;;;;;;0.00;0.00;;;;;;;;;;5072691;28;20130;-76
2023/08/26 05:03:13;;;;;;;0.00;0.00;;;;;;;;;;5071409;28;20043;-76
2023/08/26 05:05:42;;;;;;;0.00;0.00;;;;;;;;;;5072771;28;20039;-76
2023/08/26 05:08:09;;;;;;;0.00;0.00;;;;;;;;;;5054923;28;20481;-76
2023/08/26 05:10:36;;;;;;;0.00;0.00;;;;;;;;;;5071243;28;20053;-76
2023/08/26 05:13:03;;;;;;;0.00;0.00;;;;;;;;;;5071093;28;20048;-77
2023/08/26 05:15:29;;;;;;;0.00;0.00;;;;;;;;;;5071606;28;20127;-76
2023/08/26 05:17:55;;;;;;;0.00;0.00;;;;;;;;;;5072580;28;20048;-76
2023/08/26 05:20:21;;;;;;;0.00;0.00;;;;;;;;;;5071238;28;20044;-76
2023/08/26 05:22:47;;;;;;;0.00;0.00;;;;;;;;;;5071334;28;20128;-76
2023/08/26 05:25:13;;;;;;;0.00;0.00;;;;;;;;;;5072567;28;20064;-76
2023/08/26 05:27:39;;;;;;;0.00;0.00;;;;;;;;;;5072384;28;20491;-76
2023/08/26 05:30:05;;;;;;;0.00;0.00;;;;;;;;;;5074301;28;20041;-76
2023/08/26 05:32:31;;;;;;;0.00;0.00;;;;;;;;;;5075284;28;20166;-76
2023/08/26 05:34:57;;;;;;;0.00;0.00;;;;;;;;;;5076733;28;20083;-76
2023/08/26 05:37:24;;;;;;;0.00;0.00;;;;;;;;;;5075150;28;20040;-76
2023/08/26 05:39:50;;;;;;;0.00;0.00;;;;;;;;;;5075143;28;20040;-75
2023/08/26 05:42:16;;;;;;;0.00;0.00;;;;;;;;;;5074955;28;20036;-76
2023/08/26 05:44:41;;;;;;;0.00;0.00;;;;;;;;;;5074966;28;20043;-76
2023/08/26 05:47:07;;;;;;;0.00;0.00;;;;;;;;;;5076075;28;20072;-76
2023/08/26 05:49:33;;;;;;;0.00;0.00;;;;;;;;;;5074914;28;20048;-77
2023/08/26 05:51:59;;;;;;;0.00;0.00;;;;;;;;;;5076263;28;20052;-76
2023/08/26 05:54:25;;;;;;;0.00;0.00;;;;;;;;;;5076198;28;20044;-77
2023/08/26 05:56:51;;;;;;;0.00;0.00;;;;;;;;;;5074835;28;20097;-76
2023/08/26 05:59:17;;;;;;;0.00;0.00;;;;;;;;;;5074447;28;20391;-76
2023/08/26 06:01:44;;;;;;;0.00;0.00;;;;;;;;;;5074580;28;20051;-76
2023/08/26 06:04:10;;;;;;;0.00;0.00;;;;;;;;;;5075774;28;20036;-76
2023/08/26 06:06:36;;;;;;;0.00;0.00;;;;;;;;;;5075848;28;20060;-76
2023/08/26 06:09:03;;;;;;;0.00;0.00;;;;;;;;;;5074264;28;20056;-76
2023/08/26 06:11:28;;;;;;;0.00;0.00;;;;;;;;;;5075789;28;20060;-76
2023/08/26 06:13:54;;;;;;;0.00;0.00;;;;;;;;;;5075610;28;20047;-76
2023/08/26 06:16:21;;;;;;;0.00;0.00;;;;;;;;;;5075720;28;20328;-76
2023/08/26 06:18:47;;;;;;;0.00;0.00;;;;;;;;;;5075379;28;20040;-77
2023/08/26 06:21:13;;;;;;;0.00;0.00;;;;;;;;;;5057515;28;20426;-76
2023/08/26 06:23:39;;;;;;;0.00;0.00;;;;;;;;;;5075266;28;20036;-76
2023/08/26 06:26:05;;;;;;;0.00;0.00;;;;;;;;;;5075494;28;20115;-76
2023/08/26 06:28:31;;;;;;;0.00;0.00;;;;;;;;;;5075239;28;20109;-77
2023/08/26 06:31:02;;;;;;;0.00;0.00;;;;;;;;;;5073729;28;20411;-79
2023/08/26 06:33:28;;;;;;;0.00;0.00;;;;;;;;;;5073843;28;20051;-77
2023/08/26 06:35:54;;;;;;;0.00;0.00;;;;;;;;;;5073815;28;20098;-77
2023/08/26 06:38:20;;;;;;;0.00;0.00;;;;;;;;;;5073434;28;20044;-77
2023/08/26 06:40:53;;;;;;;0.00;0.00;;;;;;;;;;5074501;28;20044;-77
2023/08/26 06:43:19;;;;;;;0.00;0.00;;;;;;;;;;5073691;28;20348;-77
2023/08/26 06:45:45;;;;;;;0.00;0.00;;;;;;;;;;5074917;28;20036;-83
2023/08/26 06:48:11;;;;;;;0.00;0.00;;;;;;;;;;5074534;28;20049;-78
2023/08/26 06:50:37;;;;;;;0.00;0.00;;;;;;;;;;5074843;28;20198;-78
2023/08/26 06:53:03;;;;;;;0.00;0.00;;;;;;;;;;5073213;28;20059;-77
2023/08/26 06:55:29;;;;;;;0.00;0.00;;;;;;;;;;5073675;28;20104;-80
2023/08/26 06:57:55;;;;;;;0.00;0.00;;;;;;;;;;5074553;28;20123;-76
2023/08/26 07:00:22;;;;;;;0.00;0.00;;;;;;;;;;5073387;28;20036;-78
2023/08/26 07:02:48;;;;;;;0.00;0.00;;;;;;;;;;5073194;28;20033;-77
2023/08/26 07:05:14;;;;;;;0.00;0.00;;;;;;;;;;5073067;28;20113;-77
2023/08/26 07:07:40;;;;;;;0.00;0.00;;;;;;;;;;5074231;28;20076;-77
2023/08/26 07:10:06;;;;;;;0.00;0.00;;;;;;;;;;5074000;28;20092;-77
2023/08/26 07:12:32;;;;;;;0.00;0.00;;;;;;;;;;5073819;28;20114;-78
2023/08/26 07:14:58;;;;;;;0.13;0.00;;;;;;;;;;5072724;28;20044;-77
2023/08/26 07:17:24;;;;;;;0.00;0.00;;;;;;;;;;5074285;28;20057;-77
2023/08/26 07:19:50;;;;;;;0.00;0.00;;;;;;;;;;5072681;28;20072;-77
2023/08/26 07:22:16;;;;;;;0.00;0.00;;;;;;;;;;5072838;28;20471;-77
2023/08/26 07:24:42;;;;;;;0.00;0.00;;;;;;;;;;5072746;28;20098;-78
2023/08/26 07:27:09;;;;;;;0.00;0.00;;;;;;;;;;5074094;28;20033;-77
2023/08/26 07:29:35;;;;;;;0.00;0.00;;;;;;;;;;5073805;28;20052;-78
2023/08/26 07:32:01;;;;;;;0.00;0.00;;;;;;;;;;5074081;28;20044;-77
2023/08/26 07:34:27;;;;;;;0.00;0.00;;;;;;;;;;5073718;28;20029;-77
2023/08/26 07:36:53;;;;;;;0.00;0.00;;;;;;;;;;5073938;28;20475;-78
2023/08/26 07:39:21;;;;;;;0.00;0.00;;;;;;;;;;5073595;28;20051;-77
2023/08/26 07:41:47;;;;;;;0.00;0.00;;;;;;;;;;5073914;28;20112;-77
2023/08/26 07:44:13;;;;;;;0.00;0.00;;;;;;;;;;5073614;28;20434;-77
2023/08/26 07:46:39;;;;;;;0.00;0.00;;;;;;;;;;5072206;28;20032;-77
2023/08/26 07:49:05;;;;;;;0.00;0.00;;;;;;;;;;5073308;28;20115;-77
2023/08/26 07:51:31;;;;;;;0.00;0.00;;;;;;;;;;5072533;28;20052;-77
2023/08/26 07:53:57;;;;;;;0.00;0.00;;;;;;;;;;5071124;28;20075;-77
2023/08/26 07:56:23;;;;;;;0.00;0.00;;;;;;;;;;5072052;28;20510;-79
2023/08/26 07:58:49;;;;;;;0.00;0.00;;;;;;;;;;5071757;28;20135;-80
2023/08/26 08:01:15;;;;;;;0.00;0.00;;;;;;;;;;5071879;28;20040;-77
2023/08/26 08:03:41;;;;;;;0.00;0.00;;;;;;;;;;5071679;28;20040;-77
2023/08/26 08:06:07;;;;;;;0.00;0.00;;;;;;;;;;5071749;28;20499;-77
2023/08/26 08:08:33;;;;;;;0.00;0.00;;;;;;;;;;5071896;28;20053;-77
2023/08/26 08:10:59;;;;;;;0.00;0.00;;;;;;;;;;5071487;28;20542;-77
2023/08/26 08:13:25;;;;;;;0.00;0.00;;;;;;;;;;5071907;28;20186;-78
2023/08/26 08:15:58;;;;;;;;;;;;;;;;;;5110669;27;20909;-76
2023/08/26 08:18:24;;;;;;;0.00;0.00;;;;;;;;;;5108980;28;19920;-76
2023/08/26 08:20:50;;;;;;;0.00;0.00;;;;;;;;;;5110116;28;20456;-76
2023/08/26 08:23:16;;;;;;;0.00;0.00;;;;;;;;;;5108832;28;20455;-76
2023/08/26 08:25:42;;;;;;;0.00;0.00;;;;;;;;;;5108790;28;20050;-77
2023/08/26 08:28:07;;;;;;;0.00;0.00;;;;;;;;;;5110104;28;20572;-77
2023/08/26 08:30:33;;;;;;;0.00;0.00;;;;;;;;;;5109764;28;20040;-77
2023/08/26 08:33:01;;;;;;;0.00;0.00;;;;;;;;;;5109805;28;20073;-77
2023/08/26 08:35:27;;;;;;;0.00;0.00;;;;;;;;;;5109923;28;20054;-77
2023/08/26 08:37:53;;;;;;;0.00;0.00;;;;;;;;;;5108603;28;20040;-78
2023/08/26 08:40:19;;;;;;;0.00;0.00;;;;;;;;;;5108337;28;20036;-76
2023/08/26 08:42:45;;;;;;;0.00;0.00;;;;;;;;;;5110006;28;20472;-76
2023/08/26 08:45:14;;;;;;;0.00;0.00;;;;;;;;;;5108050;28;20047;-76
2023/08/26 08:47:41;;;;;;;0.00;0.00;;;;;;;;;;5108666;28;20113;-76
2023/08/26 08:50:08;;;;;;;0.00;0.00;;;;;;;;;;5109593;28;20075;-77
2023/08/26 08:52:34;;;;;;;0.00;0.00;;;;;;;;;;5108467;28;20073;-77
2023/08/26 08:55:00;;;;;;;0.00;0.00;;;;;;;;;;5108013;28;20093;-76
2023/08/26 08:57:31;;;;;;;0.00;0.00;;;;;;;;;;5091293;28;20130;-76
2023/08/26 08:59:58;;;;;;;0.00;0.00;;;;;;;;;;5109328;28;20530;-76
2023/08/26 09:02:25;;;;;;;0.00;0.00;;;;;;;;;;5109552;28;20123;-76
2023/08/26 09:04:51;;;;;;;0.00;0.00;;;;;;;;;;5109383;28;20391;-76
2023/08/26 09:07:18;;;;;;;0.00;0.00;;;;;;;;;;5108388;28;20043;-76
2023/08/26 09:09:44;;;;;;;0.00;0.00;;;;;;;;;;5107852;28;20040;-76
2023/08/26 09:12:10;;;;;;;0.00;0.00;;;;;;;;;;5108425;28;20051;-76
2023/08/26 09:14:36;;;;;;;0.00;0.00;;;;;;;;;;5107523;28;20415;-76
2023/08/26 09:17:15;;;;;;;0.00;0.00;;;;;;;;;;5107914;28;20139;-77
2023/08/26 09:19:51;;;;;;;0.00;0.00;;;;;;;;;;5109054;28;20063;-76
2023/08/26 09:22:19;;;;;;;0.00;0.00;;;;;;;;;;5109176;28;20384;-76
2023/08/26 09:24:45;;;;;;;0.00;0.00;;;;;;;;;;5108814;28;20517;-76
2023/08/26 09:27:15;;;;;;;0.00;0.00;;;;;;;;;;5096378;28;20482;-76
2023/08/26 09:29:41;;;;;;;0.00;0.00;;;;;;;;;;5093915;28;20059;-76
2023/08/26 09:32:07;;;;;;;0.00;0.00;;;;;;;;;;5095635;28;20032;-76
2023/08/26 09:34:33;;;;;;;0.00;0.00;;;;;;;;;;5095569;28;20047;-76
2023/08/26 09:37:00;;;;;;;0.00;0.00;;;;;;;;;;5094600;28;20048;-76
2023/08/26 09:39:26;;;;;;;0.00;0.00;;;;;;;;;;5094105;28;20048;-76
2023/08/26 09:41:54;;;;;;;0.00;0.00;;;;;;;;;;5095568;28;20127;-76
2023/08/26 09:44:23;;;;;;;0.00;0.00;;;;;;;;;;5093823;28;20075;-77
2023/08/26 09:46:49;;;;;;;0.00;0.00;;;;;;;;;;5095260;28;20050;-77
2023/08/26 09:49:16;;;;;;;0.00;0.00;;;;;;;;;;5093807;28;20051;-76
2023/08/26 09:51:46;;;;;;;0.00;0.00;;;;;;;;;;5093723;28;20040;-77
2023/08/26 09:54:16;;;;;;;0.00;0.00;;;;;;;;;;5095144;28;20126;-76
2023/08/26 09:56:42;;;;;;;0.00;0.00;;;;;;;;;;5095129;28;20118;-76
2023/08/26 09:59:09;;;;;;;0.00;0.00;;;;;;;;;;5094698;28;20451;-76
2023/08/26 10:01:35;;;;;;;0.00;0.00;;;;;;;;;;5093638;28;20098;-76
2023/08/26 10:04:09;;;;;;;0.00;0.00;;;;;;;;;;5094951;28;20079;-77
2023/08/26 10:06:40;;;;;;;0.00;0.00;;;;;;;;;;5094686;28;20124;-77
2023/08/26 10:09:26;;;;;;;0.00;0.00;;;;;;;;;;5094430;28;20044;-76
2023/08/26 10:11:54;;;;;;;0.00;0.00;;;;;;;;;;5093996;28;20079;-78
2023/08/26 10:14:21;;;;;;;0.00;0.00;;;;;;;;;;5094599;28;20044;-78
2023/08/26 10:16:48;;;;;;;0.00;0.00;;;;;;;;;;5093180;28;20043;-78
2023/08/26 10:19:15;;;;;;;0.32;0.10;;;;;;;;;;5094422;28;20471;-77
2023/08/26 10:21:41;;;;;;;0.00;0.00;;;;;;;;;;5094092;28;20051;-77
2023/08/26 10:24:07;;;;;;;0.13;0.10;;;;;;;;;;5094407;28;20040;-77
2023/08/26 10:26:33;;;;;;;0.10;0.05;;;;;;;;;;5094195;28;20081;-78
2023/08/26 10:29:00;;;;;;;0.00;0.00;;;;;;;;;;5093216;28;20044;-77
2023/08/26 10:31:33;;;;;;;0.00;0.00;;;;;;;;;;5093983;28;20039;-78
2023/08/26 10:34:00;;;;;;;0.00;0.00;;;;;;;;;;5093085;28;20332;-77
2023/08/26 10:36:26;;;;;;;0.00;0.00;;;;;;;;;;5092619;28;20044;-77
2023/08/26 10:38:56;;;;;;;0.00;0.00;;;;;;;;;;5091591;28;20427;-77
2023/08/26 10:41:22;;;;;;;0.00;0.00;;;;;;;;;;5092339;28;20044;-78
2023/08/26 10:43:55;;;;;;;0.00;0.00;;;;;;;;;;5093763;28;20487;-77
2023/08/26 10:46:32;;;;;;;0.00;0.00;;;;;;;;;;5093621;28;20040;-77
2023/08/26 10:49:00;;;;;;;0.00;0.00;;;;;;;;;;5075814;28;20040;-78
2023/08/26 10:51:26;;;;;;;0.30;0.22;;;;;;;;;;5093666;28;20044;-78
2023/08/26 10:53:52;;;;;;;0.00;0.00;;;;;;;;;;5093794;28;20028;-77
2023/08/26 10:56:21;;;;;;;0.00;0.00;;;;;;;;;;5075222;28;20369;-77
2023/08/26 10:58:48;;;;;;;0.00;0.00;;;;;;;;;;5093511;28;20048;-77
2023/08/26 11:01:15;;;;;;;0.00;0.00;;;;;;;;;;5093224;28;20462;-77
2023/08/26 11:03:43;;;;;;;0.00;0.00;;;;;;;;;;5092084;28;20100;-77
2023/08/26 11:06:12;;;;;;;0.00;0.00;;;;;;;;;;5093350;28;20043;-77
2023/08/26 11:08:39;;;;;;;0.25;0.00;;;;;;;;;;5075728;28;20032;-77
2023/08/26 11:11:05;;;;;;;0.00;0.00;;;;;;;;;;5091739;28;20036;-77
2023/08/26 11:13:32;;;;;;;0.00;0.00;;;;;;;;;;5092058;28;20094;-77
2023/08/26 11:15:59;;;;;;;0.00;0.00;;;;;;;;;;5093287;28;20044;-77
2023/08/26 11:18:25;;;;;;;0.00;0.00;;;;;;;;;;5075123;28;20067;-77
2023/08/26 11:20:51;;;;;;;0.00;0.00;;;;;;;;;;5091567;28;20050;-77
2023/08/26 11:23:17;;;;;;;0.00;0.00;;;;;;;;;;5093405;28;20051;-77
2023/08/26 11:25:43;;;;;;;0.00;0.00;;;;;;;;;;5092984;28;20044;-77
2023/08/26 11:28:10;;;;;;;0.00;0.00;;;;;;;;;;5093214;28;20409;-77
2023/08/26 11:30:43;;;;;;;0.00;0.00;;;;;;;;;;5092935;28;20032;-77
2023/08/26 11:33:11;;;;;;;0.00;0.00;;;;;;;;;;5093160;28;20053;-77
2023/08/26 11:35:38;;;;;;;0.00;0.00;;;;;;;;;;5074813;28;20051;-77
2023/08/26 11:38:05;;;;;;;0.00;0.00;;;;;;;;;;5092955;28;20055;-77
2023/08/26 11:40:32;;;;;;;0.00;0.00;;;;;;;;;;5092514;28;20052;-77
2023/08/26 11:42:58;;;;;;;0.00;0.00;;;;;;;;;;5093038;28;20036;-77
2023/08/26 11:45:25;;;;;;;0.00;0.00;;;;;;;;;;5091090;28;20047;-77
2023/08/26 11:47:53;;;;;;;0.00;0.00;;;;;;;;;;5092890;28;20044;-77
2023/08/26 11:50:19;;;;;;;0.00;0.00;;;;;;;;;;5091315;28;20040;-77
2023/08/26 11:52:45;;;;;;;0.00;0.00;;;;;;;;;;5092682;28;20403;-78
2023/08/26 11:55:11;;;;;;;0.00;0.00;;;;;;;;;;5091447;28;20048;-77
2023/08/26 11:57:40;;;;;;;0.00;0.00;;;;;;;;;;5091105;28;20522;-77
2023/08/26 12:00:07;;;;;;;0.00;0.00;;;;;;;;;;5092596;28;20118;-78
2023/08/26 12:02:33;;;;;;;0.00;0.00;;;;;;;;;;5092536;28;20036;-77
2023/08/26 12:05:01;;;;;;;0.00;0.00;;;;;;;;;;5092546;28;20044;-77
2023/08/26 12:07:29;;;;;;;0.00;0.00;;;;;;;;;;5092218;28;20043;-81
2023/08/26 12:09:55;;;;;;;0.00;0.00;;;;;;;;;;5092395;28;20085;-77
2023/08/26 12:12:21;;;;;;;0.00;0.00;;;;;;;;;;5092417;28;20236;-77
2023/08/26 12:14:48;;;;;;;0.00;0.00;;;;;;;;;;5092280;28;20052;-77
2023/08/26 12:17:14;;;;;;;0.00;0.00;;;;;;;;;;5092435;28;20071;-77
2023/08/26 12:19:43;;;;;;;0.00;0.00;;;;;;;;;;5092436;28;20046;-77
2023/08/26 12:22:11;;;;;;;0.00;0.00;;;;;;;;;;5092049;28;20065;-77
2023/08/26 12:24:40;;;;;;;0.00;0.00;;;;;;;;;;5092179;28;20063;-77
2023/08/26 12:27:10;;;;;;;0.00;0.00;;;;;;;;;;5092306;28;20036;-77
2023/08/26 12:29:36;;;;;;;0.00;0.00;;;;;;;;;;5090817;28;20044;-77
2023/08/26 12:32:02;;;;;;;0.00;0.00;;;;;;;;;;5092133;28;20113;-77
2023/08/26 12:34:28;;;;;;;0.00;0.00;;;;;;;;;;5091201;28;20050;-77
2023/08/26 12:36:55;;;;;;;0.00;0.00;;;;;;;;;;5090686;28;20040;-77
2023/08/26 12:39:23;;;;;;;0.00;0.00;;;;;;;;;;5090781;28;20057;-77
2023/08/26 12:41:49;;;;;;;0.00;0.00;;;;;;;;;;5092117;28;20153;-78
2023/08/26 12:44:15;;;;;;;0.00;0.00;;;;;;;;;;5090959;28;20044;-77
2023/08/26 12:46:41;;;;;;;0.00;0.00;;;;;;;;;;5090573;28;20044;-77
2023/08/26 12:49:07;;;;;;;0.00;0.00;;;;;;;;;;5092136;28;20108;-77
2023/08/26 12:51:33;;;;;;;0.00;0.00;;;;;;;;;;5091788;28;20554;-78
2023/08/26 12:53:59;;;;;;;0.00;0.00;;;;;;;;;;5092201;28;20123;-77
2023/08/26 12:56:25;;;;;;;0.00;0.00;;;;;;;;;;5090588;28;20044;-77
2023/08/26 12:58:52;;;;;;;0.00;0.00;;;;;;;;;;5091075;28;20047;-78
2023/08/26 13:01:19;;;;;;;0.00;0.00;;;;;;;;;;5074827;28;20044;-80
2023/08/26 13:03:45;;;;;;;0.00;0.00;;;;;;;;;;5094688;28;20054;-77
2023/08/26 13:06:13;;;;;;;0.00;0.00;;;;;;;;;;5094197;28;20562;-78
2023/08/26 13:08:39;;;;;;;0.00;0.00;;;;;;;;;;5094717;28;20043;-78
2023/08/26 13:11:05;;;;;;;0.00;0.00;;;;;;;;;;5094477;28;20043;-77
2023/08/26 13:13:31;;;;;;;0.00;0.00;;;;;;;;;;5095597;28;20044;-77
2023/08/26 13:15:57;;;;;;;0.00;0.00;;;;;;;;;;5077770;28;20143;-78
2023/08/26 13:18:23;;;;;;;0.00;0.00;;;;;;;;;;5095540;28;20486;-77
2023/08/26 13:20:49;;;;;;;0.00;0.00;;;;;;;;;;5094378;28;20051;-77
2023/08/26 13:23:15;;;;;;;0.00;0.00;;;;;;;;;;5095588;28;20044;-77
2023/08/26 13:25:41;;;;;;;0.00;0.00;;;;;;;;;;5095313;28;20441;-78
2023/08/26 13:28:07;;;;;;;0.00;0.00;;;;;;;;;;5094007;28;20044;-78
2023/08/26 13:30:33;;;;;;;0.00;0.00;;;;;;;;;;5095418;28;20115;-83
2023/08/26 13:32:59;;;;;;;0.50;0.08;;;;;;;;;;5095094;28;20420;-78
2023/08/26 13:35:25;;;;;;;0.00;0.00;;;;;;;;;;5094346;28;20051;-77
2023/08/26 13:37:51;;;;;;;0.00;0.00;;;;;;;;;;5093708;28;20119;-77
2023/08/26 13:40:17;;;;;;;0.00;0.00;;;;;;;;;;5094154;28;20140;-78
2023/08/26 13:42:43;;;;;;;0.00;0.00;;;;;;;;;;5095065;28;20051;-78
2023/08/26 13:45:09;;;;;;;0.00;0.00;;;;;;;;;;5093776;28;20130;-78
2023/08/26 13:47:35;;;;;;;0.00;0.00;;;;;;;;;;5094947;28;20114;-78
2023/08/26 13:50:01;;;;;;;0.00;0.00;;;;;;;;;;5094874;28;20128;-78
2023/08/26 13:52:27;;;;;;;0.00;0.00;;;;;;;;;;5093856;28;20048;-77
2023/08/26 13:54:53;;;;;;;0.00;0.00;;;;;;;;;;5095217;28;20547;-78
2023/08/26 13:57:19;;;;;;;0.00;0.00;;;;;;;;;;5095332;28;20073;-78
2023/08/26 13:59:45;;;;;;;0.00;0.00;;;;;;;;;;5094328;28;20123;-78
2023/08/26 14:02:11;;;;;;;0.00;0.00;;;;;;;;;;5095053;28;20095;-81
2023/08/26 14:04:37;;;;;;;0.00;0.00;;;;;;;;;;5093345;28;20044;-78
2023/08/26 14:07:03;;;;;;;0.00;0.00;;;;;;;;;;5094817;28;20498;-78
2023/08/26 14:09:29;;;;;;;0.00;0.00;;;;;;;;;;5094560;28;20044;-78
2023/08/26 14:11:58;;;;;;;0.00;0.00;;;;;;;;;;5094701;28;20040;-78
2023/08/26 14:14:24;;;;;;;0.00;0.00;;;;;;;;;;5094384;28;20539;-78
2023/08/26 14:16:50;;;;;;;0.00;0.00;;;;;;;;;;5093399;28;20128;-78
2023/08/26 14:19:17;;;;;;;0.00;0.00;;;;;;;;;;5094179;28;20036;-77
2023/08/26 14:21:43;;;;;;;0.00;0.00;;;;;;;;;;5093429;28;20047;-78
2023/08/26 14:24:09;;;;;;;0.00;0.00;;;;;;;;;;5094252;28;20424;-78
2023/08/26 14:26:35;;;;;;;0.00;0.00;;;;;;;;;;5094356;28;20054;-77
2023/08/26 14:29:01;;;;;;;0.00;0.00;;;;;;;;;;5094146;28;20464;-78
2023/08/26 14:31:27;;;;;;;0.00;0.00;;;;;;;;;;5092991;28;20051;-78
2023/08/26 14:33:53;;;;;;;0.43;0.10;;;;;;;;;;5093968;28;20441;-78
2023/08/26 14:36:20;;;;;;;0.00;0.00;;;;;;;;;;5094330;28;20063;-76
2023/08/26 14:38:46;;;;;;;0.00;0.00;;;;;;;;;;5093901;28;20051;-80